createdAt,value
2022-09-26T00:00:53.433Z,76.53
2022-09-26T00:03:21.120Z,76.59
2022-09-26T00:05:48.729Z,76.62
2022-09-26T00:08:16.392Z,76.18
2022-09-26T00:10:44.053Z,76.46
2022-09-26T00:13:13.075Z,76.42
2022-09-26T00:15:40.700Z,76.56
2022-09-26T00:18:08.329Z,76.46
2022-09-26T00:20:37.974Z,76.76
2022-09-26T00:23:05.594Z,76.76
2022-09-26T00:25:33.250Z,76.65
2022-09-26T00:28:00.862Z,77.13
2022-09-26T00:30:29.910Z,76.86
2022-09-26T00:32:57.599Z,77.05
2022-09-26T00:35:25.228Z,76.79
2022-09-26T00:37:52.884Z,76.87
2022-09-26T00:40:20.610Z,76.99
2022-09-26T00:42:48.279Z,77.08
2022-09-26T00:45:15.943Z,77.08
2022-09-26T00:47:47.348Z,77.43
2022-09-26T00:50:22.727Z,77.60
2022-09-26T00:52:53.828Z,77.34
2022-09-26T00:55:24.966Z,77.31
2022-09-26T00:57:57.369Z,77.23
2022-09-26T01:00:25.135Z,77.62
2022-09-26T01:02:54.649Z,77.39
2022-09-26T01:05:24.204Z,77.64
2022-09-26T01:07:54.578Z,77.52
2022-09-26T01:10:24.138Z,77.45
2022-09-26T01:12:52.240Z,77.90
2022-09-26T01:15:20.267Z,77.71
2022-09-26T01:17:48.250Z,77.41
2022-09-26T01:20:29.003Z,77.51
2022-09-26T01:23:48.529Z,77.15
2022-09-26T01:26:35.854Z,77.49
2022-09-26T01:29:39.027Z,77.34
2022-09-26T01:32:38.497Z,77.44
2022-09-26T01:35:13.290Z,77.29
2022-09-26T01:37:49.278Z,77.23
2022-09-26T01:40:24.496Z,77.04
2022-09-26T01:43:05.136Z,77.17
2022-09-26T01:45:43.773Z,77.62
2022-09-26T01:48:18.547Z,77.47
2022-09-26T01:50:51.274Z,77.94
2022-09-26T01:53:23.922Z,78.01
2022-09-26T01:55:55.711Z,77.94
2022-09-26T01:58:28.614Z,78.12
2022-09-26T02:01:02.255Z,78.30
2022-09-26T02:03:37.572Z,78.43
2022-09-26T02:06:09.536Z,78.12
2022-09-26T02:08:41.745Z,78.19
2022-09-26T02:11:13.635Z,78.72
2022-09-26T02:13:48.371Z,78.84
2022-09-26T02:16:22.110Z,78.73
2022-09-26T02:18:55.651Z,79.09
2022-09-26T02:21:24.430Z,78.90
2022-09-26T02:23:54.330Z,79.20
2022-09-26T02:26:22.263Z,79.29
2022-09-26T02:28:50.146Z,79.49
2022-09-26T02:31:22.983Z,79.40
2022-09-26T02:33:53.590Z,79.13
2022-09-26T02:36:23.181Z,79.18
2022-09-26T02:38:50.807Z,79.32
2022-09-26T02:41:29.526Z,79.46
2022-09-26T02:44:12.644Z,79.32
2022-09-26T02:47:16.952Z,79.75
2022-09-26T02:50:04.678Z,79.53
2022-09-26T02:52:41.640Z,79.40
2022-09-26T02:55:22.198Z,79.51
2022-09-26T02:58:03.891Z,79.21
2022-09-26T03:00:49.197Z,79.28
2022-09-26T03:03:24.191Z,79.04
2022-09-26T03:05:57.927Z,79.09
2022-09-26T03:08:27.997Z,79.36
2022-09-26T03:10:59.662Z,79.55
2022-09-26T03:13:28.804Z,79.16
2022-09-26T03:15:59.704Z,79.19
2022-09-26T03:18:32.612Z,79.07
2022-09-26T03:21:01.823Z,78.78
2022-09-26T03:23:30.256Z,79.26
2022-09-26T03:26:01.423Z,78.92
2022-09-26T03:28:32.770Z,79.01
2022-09-26T03:31:03.119Z,79.03
2022-09-26T03:33:30.849Z,78.93
2022-09-26T03:36:00.435Z,78.55
2022-09-26T03:38:29.377Z,78.49
2022-09-26T03:40:59.097Z,78.54
2022-09-26T03:43:26.786Z,78.37
2022-09-26T03:45:55.017Z,78.46
2022-09-26T03:48:22.712Z,78.35
2022-09-26T03:50:50.331Z,78.17
2022-09-26T03:53:18.814Z,78.38
2022-09-26T03:55:47.833Z,78.26
2022-09-26T03:58:15.465Z,78.15
2022-09-26T04:00:43.290Z,78.06
2022-09-26T04:03:10.993Z,78.08
2022-09-26T04:05:38.969Z,78.19
2022-09-26T04:08:06.566Z,78.24
2022-09-26T04:10:34.260Z,77.98
2022-09-26T04:13:03.389Z,78.23
2022-09-26T04:15:31.427Z,78.09
2022-09-26T04:17:59.007Z,78.13
2022-09-26T04:20:26.689Z,78.10
2022-09-26T04:22:55.091Z,78.12
2022-09-26T04:25:22.726Z,77.76
2022-09-26T04:27:50.352Z,77.76
2022-09-26T04:30:19.483Z,77.34
2022-09-26T04:32:47.668Z,77.39
2022-09-26T04:35:15.427Z,77.39
2022-09-26T04:37:43.203Z,77.21
2022-09-26T04:40:11.598Z,77.43
2022-09-26T04:42:41.422Z,77.14
2022-09-26T04:45:09.815Z,76.88
2022-09-26T04:47:38.796Z,76.91
2022-09-26T04:50:06.929Z,77.13
2022-09-26T04:52:34.544Z,76.82
2022-09-26T04:55:02.187Z,76.79
2022-09-26T04:57:29.787Z,77.02
2022-09-26T04:59:57.446Z,76.52
2022-09-26T05:02:25.096Z,76.31
2022-09-26T05:04:55.108Z,76.48
2022-09-26T05:07:22.733Z,76.26
2022-09-26T05:09:50.504Z,76.25
2022-09-26T05:12:18.605Z,76.17
2022-09-26T05:14:46.217Z,75.87
2022-09-26T05:17:14.095Z,75.92
2022-09-26T05:19:42.985Z,75.68
2022-09-26T05:22:12.031Z,75.77
2022-09-26T05:24:57.452Z,75.62
2022-09-26T05:27:25.208Z,74.66
2022-09-26T05:29:55.403Z,74.47
2022-09-26T05:32:23.010Z,73.93
2022-09-26T05:34:51.016Z,74.13
2022-09-26T05:37:20.007Z,74.06
2022-09-26T05:40:05.458Z,73.85
2022-09-26T05:42:49.633Z,73.70
2022-09-26T05:45:17.370Z,73.35
2022-09-26T05:47:45.137Z,73.26
2022-09-26T05:50:12.795Z,73.15
2022-09-26T05:52:41.782Z,72.74
2022-09-26T05:55:11.835Z,72.52
2022-09-26T05:57:39.486Z,72.86
2022-09-26T06:00:08.853Z,73.02
2022-09-26T06:02:36.513Z,72.53
2022-09-26T06:05:04.552Z,72.02
2022-09-26T06:07:33.445Z,71.82
2022-09-26T06:10:02.626Z,71.79
2022-09-26T06:12:30.261Z,71.74
2022-09-26T06:14:57.938Z,71.77
2022-09-26T06:17:26.409Z,72.14
2022-09-26T06:19:54.058Z,71.89
2022-09-26T06:22:21.708Z,71.36
2022-09-26T06:24:49.341Z,71.45
2022-09-26T06:27:18.368Z,71.16
2022-09-26T06:29:46.023Z,71.20
2022-09-26T06:32:13.612Z,71.43
2022-09-26T06:34:41.285Z,71.41
2022-09-26T06:37:08.902Z,70.65
2022-09-26T06:39:37.022Z,70.93
2022-09-26T06:42:05.675Z,70.99
2022-09-26T06:44:34.869Z,70.78
2022-09-26T06:47:02.594Z,70.95
2022-09-26T06:49:30.264Z,71.11
2022-09-26T06:51:57.961Z,70.95
2022-09-26T06:54:25.592Z,70.72
2022-09-26T06:56:53.901Z,70.83
2022-09-26T06:59:22.907Z,71.20
2022-09-26T07:01:51.929Z,71.50
2022-09-26T07:04:19.660Z,71.67
2022-09-26T07:06:47.338Z,71.98
2022-09-26T07:09:15.260Z,72.34
2022-09-26T07:12:12.953Z,72.02
2022-09-26T07:14:34.311Z,71.50
2022-09-26T07:17:03.506Z,71.43
2022-09-26T07:19:31.176Z,71.24
2022-09-26T07:21:58.941Z,71.17
2022-09-26T07:24:27.243Z,71.48
2022-09-26T07:26:54.880Z,71.19
2022-09-26T07:29:22.491Z,71.49
2022-09-26T07:31:50.204Z,71.53
2022-09-26T07:34:19.273Z,72.05
2022-09-26T07:36:47.463Z,71.89
2022-09-26T07:39:15.331Z,72.37
2022-09-26T07:41:45.945Z,72.79
2022-09-26T07:47:31.155Z,73.50
2022-09-26T07:50:22.878Z,73.52
2022-09-26T07:52:52.303Z,73.51
2022-09-26T07:55:21.821Z,73.09
2022-09-26T07:57:49.997Z,72.70
2022-09-26T08:00:19.558Z,72.59
2022-09-26T08:02:47.620Z,72.80
2022-09-26T08:05:20.141Z,72.91
2022-09-26T08:07:49.627Z,73.07
2022-09-26T08:10:20.013Z,73.27
2022-09-26T08:12:47.710Z,73.26
2022-09-26T08:15:16.247Z,73.33
2022-09-26T08:17:44.456Z,73.80
2022-09-26T08:20:12.777Z,73.60
2022-09-26T08:22:41.808Z,73.44
2022-09-26T08:25:10.505Z,73.71
2022-09-26T08:27:38.267Z,74.29
2022-09-26T08:30:07.656Z,74.22
2022-09-26T08:32:35.390Z,74.57
2022-09-26T08:35:03.128Z,74.79
2022-09-26T08:37:31.124Z,74.18
2022-09-26T08:40:01.020Z,74.76
2022-09-26T08:42:41.841Z,75.03
2022-09-26T08:45:57.451Z,75.76
2022-09-26T08:48:40.000Z,75.75
2022-09-26T08:51:13.753Z,75.88
2022-09-26T08:53:49.756Z,76.39
2022-09-26T08:56:22.247Z,76.26
2022-09-26T08:58:52.293Z,76.70
2022-09-26T09:01:27.402Z,77.31
2022-09-26T09:04:02.198Z,76.93
2022-09-26T09:06:30.166Z,76.91
2022-09-26T09:08:59.032Z,77.58
2022-09-26T09:12:02.482Z,77.85
2022-09-26T09:14:43.306Z,78.06
2022-09-26T09:17:22.905Z,78.22
2022-09-26T09:20:00.215Z,78.28
2022-09-26T09:22:44.982Z,78.64
2022-09-26T09:25:17.464Z,78.41
2022-09-26T09:28:01.235Z,78.28
2022-09-26T09:30:41.232Z,78.72
2022-09-26T09:33:14.584Z,79.06
2022-09-26T09:35:46.112Z,78.93
2022-09-26T09:38:17.394Z,79.32
2022-09-26T09:40:52.686Z,78.76
2022-09-26T09:43:27.908Z,78.74
2022-09-26T09:46:02.615Z,78.43
2022-09-26T09:48:31.031Z,79.32
2022-09-26T09:51:17.344Z,79.10
2022-09-26T09:54:00.501Z,78.93
2022-09-26T09:56:39.253Z,79.52
2022-09-26T09:59:23.463Z,79.71
2022-09-26T10:02:01.114Z,79.31
2022-09-26T10:04:40.743Z,79.56
2022-09-26T10:07:29.156Z,80.17
2022-09-26T10:09:59.565Z,79.34
2022-09-26T10:12:44.027Z,79.23
2022-09-26T10:15:36.850Z,78.71
2022-09-26T10:20:57.349Z,78.16
2022-09-26T10:23:31.570Z,78.10
2022-09-26T10:26:03.179Z,78.03
2022-09-26T10:28:35.850Z,77.84
2022-09-26T10:31:08.798Z,77.68
2022-09-26T10:33:38.664Z,77.56
2022-09-26T10:36:20.646Z,76.92
2022-09-26T10:39:11.590Z,76.87
2022-09-26T10:41:41.669Z,76.16
2022-09-26T10:44:23.625Z,75.64
2022-09-26T10:46:56.463Z,75.08
2022-09-26T10:49:30.922Z,74.61
2022-09-26T10:52:11.691Z,74.90
2022-09-26T10:54:47.362Z,74.42
2022-09-26T10:57:28.081Z,75.06
2022-09-26T10:59:59.411Z,73.98
2022-09-26T11:02:29.635Z,73.27
2022-09-26T11:05:18.068Z,72.82
2022-09-26T11:07:49.535Z,72.21
2022-09-26T11:10:24.334Z,71.87
2022-09-26T11:13:02.278Z,71.66
2022-09-26T11:15:30.664Z,71.88
2022-09-26T11:17:59.940Z,71.79
2022-09-26T11:20:41.611Z,70.84
2022-09-26T11:23:19.486Z,70.70
2022-09-26T11:25:58.405Z,70.57
2022-09-26T11:28:32.594Z,70.47
2022-09-26T11:31:06.045Z,70.50
2022-09-26T11:33:35.211Z,70.55
2022-09-26T11:36:25.230Z,70.47
2022-09-26T11:38:57.706Z,70.07
2022-09-26T11:41:38.673Z,69.65
2022-09-26T11:44:20.808Z,69.79
2022-09-26T11:46:59.118Z,69.64
2022-09-26T11:49:46.146Z,70.44
2022-09-26T11:52:29.693Z,70.20
2022-09-26T11:55:08.413Z,70.67
2022-09-26T11:57:45.094Z,68.99
2022-09-26T12:00:24.662Z,69.41
2022-09-26T12:03:17.552Z,70.09
2022-09-26T12:05:51.908Z,70.08
2022-09-26T12:08:32.955Z,69.97
2022-09-26T12:11:10.557Z,70.32
2022-09-26T12:13:52.166Z,70.62
2022-09-26T12:16:28.008Z,71.39
2022-09-26T12:19:05.254Z,72.13
2022-09-26T12:22:06.621Z,72.27
2022-09-26T12:24:43.796Z,72.96
2022-09-26T12:27:21.646Z,72.56
2022-09-26T12:29:59.051Z,72.46
2022-09-26T12:32:56.625Z,73.16
2022-09-26T12:35:34.784Z,72.45
2022-09-26T12:38:24.544Z,71.90
2022-09-26T12:41:13.698Z,72.56
2022-09-26T12:43:59.739Z,72.92
2022-09-26T12:46:48.167Z,73.27
2022-09-26T12:49:34.446Z,74.07
2022-09-26T12:52:12.253Z,73.78
2022-09-26T12:54:56.132Z,73.61
2022-09-26T12:57:32.857Z,74.12
2022-09-26T13:00:16.652Z,74.54
2022-09-26T13:03:07.863Z,74.83
2022-09-26T13:05:50.294Z,75.00
2022-09-26T13:08:26.214Z,75.85
2022-09-26T13:11:08.443Z,75.43
2022-09-26T13:13:59.591Z,76.14
2022-09-26T13:16:38.178Z,76.40
2022-09-26T13:19:17.533Z,76.69
2022-09-26T13:21:49.898Z,76.26
2022-09-26T13:24:22.559Z,76.66
2022-09-26T13:26:54.786Z,76.87
2022-09-26T13:29:28.580Z,77.28
2022-09-26T13:32:13.169Z,77.75
2022-09-26T13:34:47.176Z,77.56
2022-09-26T13:37:29.008Z,78.31
2022-09-26T13:40:06.694Z,78.77
2022-09-26T13:42:45.632Z,79.32
2022-09-26T13:45:23.679Z,79.68
2022-09-26T13:47:57.444Z,80.41
2022-09-26T13:50:34.020Z,81.00
2022-09-26T13:53:11.680Z,80.31
2022-09-26T13:55:39.440Z,80.61
2022-09-26T13:58:21.482Z,81.20
2022-09-26T14:00:57.502Z,81.83
2022-09-26T14:03:43.085Z,82.25
2022-09-26T14:06:27.198Z,82.63
2022-09-26T14:09:24.950Z,82.93
2022-09-26T14:12:17.548Z,83.40
2022-09-26T14:14:51.622Z,82.80
2022-09-26T14:18:04.147Z,82.52
2022-09-26T14:20:38.299Z,83.30
2022-09-26T14:23:06.102Z,83.58
2022-09-26T14:25:58.811Z,83.77
2022-09-26T14:28:33.908Z,84.29
2022-09-26T14:31:22.037Z,84.52
2022-09-26T14:33:53.881Z,84.66
2022-09-26T14:36:28.814Z,84.75
2022-09-26T14:38:56.748Z,84.75
2022-09-26T14:41:29.871Z,84.78
2022-09-26T14:44:04.063Z,84.62
2022-09-26T14:46:36.451Z,85.01
2022-09-26T14:49:05.515Z,85.27
2022-09-26T14:51:34.810Z,85.11
2022-09-26T14:54:05.924Z,85.98
2022-09-26T14:56:42.794Z,85.60
2022-09-26T14:59:40.145Z,85.83
2022-09-26T15:02:39.568Z,86.28
2022-09-26T15:05:16.230Z,86.01
2022-09-26T15:07:47.187Z,85.94
2022-09-26T15:10:40.106Z,86.13
2022-09-26T15:13:26.203Z,86.17
2022-09-26T15:16:02.537Z,86.04
2022-09-26T15:18:41.316Z,86.43
2022-09-26T15:21:27.428Z,86.53
2022-09-26T15:23:56.920Z,86.27
2022-09-26T15:26:27.365Z,86.58
2022-09-26T15:28:57.606Z,86.78
2022-09-26T15:31:29.008Z,86.89
2022-09-26T15:34:01.515Z,87.51
2022-09-26T15:36:30.001Z,87.44
2022-09-26T15:38:58.304Z,87.59
2022-09-26T15:41:43.627Z,87.73
2022-09-26T15:44:20.578Z,88.13
2022-09-26T15:46:50.548Z,88.12
2022-09-26T15:49:28.414Z,88.38
2022-09-26T15:51:57.650Z,88.27
2022-09-26T15:54:30.011Z,88.96
2022-09-26T15:57:02.390Z,88.56
2022-09-26T15:59:35.408Z,88.27
2022-09-26T16:02:20.191Z,88.27
2022-09-26T16:04:50.955Z,88.43
2022-09-26T16:07:22.521Z,88.61
2022-09-26T16:09:51.930Z,88.65
2022-09-26T16:12:22.733Z,88.87
2022-09-26T16:14:54.809Z,89.00
2022-09-26T16:17:26.845Z,89.16
2022-09-26T16:19:57.443Z,88.93
2022-09-26T16:22:40.067Z,89.20
2022-09-26T16:25:33.830Z,88.21
2022-09-26T16:28:23.001Z,88.07
2022-09-26T16:31:17.825Z,88.29
2022-09-26T16:33:52.246Z,87.70
2022-09-26T16:36:24.428Z,87.60
2022-09-26T16:38:54.460Z,86.96
2022-09-26T16:41:56.370Z,86.42
2022-09-26T16:44:26.496Z,86.01
2022-09-26T16:47:01.622Z,86.81
2022-09-26T16:49:34.446Z,86.08
2022-09-26T16:52:31.887Z,86.61
2022-09-26T16:55:01.631Z,86.76
2022-09-26T16:57:31.732Z,87.11
2022-09-26T17:00:19.859Z,86.56
2022-09-26T17:02:47.903Z,86.35
2022-09-26T17:05:18.528Z,86.82
2022-09-26T17:07:50.227Z,86.69
2022-09-26T17:10:20.513Z,86.26
2022-09-26T17:12:51.361Z,86.31
2022-09-26T17:15:22.908Z,86.61
2022-09-26T17:17:53.668Z,86.32
2022-09-26T17:20:22.130Z,86.81
2022-09-26T17:22:51.292Z,87.01
2022-09-26T17:25:19.999Z,87.09
2022-09-26T17:27:50.740Z,87.33
2022-09-26T17:30:20.339Z,87.31
2022-09-26T17:32:49.863Z,87.59
2022-09-26T17:35:24.887Z,87.72
2022-09-26T17:37:54.521Z,87.99
2022-09-26T17:40:25.088Z,87.80
2022-09-26T17:42:55.331Z,87.82
2022-09-26T17:45:28.886Z,88.01
2022-09-26T17:47:59.023Z,87.68
2022-09-26T17:50:29.306Z,88.07
2022-09-26T17:52:58.941Z,88.13
2022-09-26T17:55:27.087Z,88.62
2022-09-26T17:57:55.595Z,88.70
2022-09-26T18:00:23.360Z,88.75
2022-09-26T18:02:55.943Z,89.07
2022-09-26T18:05:26.620Z,88.93
2022-09-26T18:07:58.568Z,88.82
2022-09-26T18:10:30.396Z,89.27
2022-09-26T18:13:01.123Z,89.29
2022-09-26T18:15:29.817Z,89.20
2022-09-26T18:17:58.903Z,89.14
2022-09-26T18:20:37.015Z,89.01
2022-09-26T18:23:07.704Z,89.31
2022-09-26T18:25:38.191Z,89.31
2022-09-26T18:28:12.449Z,89.23
2022-09-26T18:30:43.089Z,89.23
2022-09-26T18:33:13.585Z,89.10
2022-09-26T18:35:44.047Z,89.40
2022-09-26T18:38:12.520Z,89.76
2022-09-26T18:40:45.651Z,89.86
2022-09-26T18:43:18.126Z,89.74
2022-09-26T18:45:45.848Z,89.95
2022-09-26T18:48:25.808Z,89.97
2022-09-26T18:50:54.577Z,90.02
2022-09-26T18:53:24.484Z,90.06
2022-09-26T18:56:11.288Z,90.17
2022-09-26T18:58:39.463Z,90.38
2022-09-26T19:01:12.286Z,90.65
2022-09-26T19:03:42.379Z,90.82
2022-09-26T19:06:13.583Z,90.86
2022-09-26T19:08:43.823Z,90.48
2022-09-26T19:11:16.489Z,90.55
2022-09-26T19:13:46.037Z,90.08
2022-09-26T19:16:14.239Z,90.04
2022-09-26T19:18:42.403Z,89.91
2022-09-26T19:21:22.088Z,90.07
2022-09-26T19:23:50.622Z,90.27
2022-09-26T19:26:27.613Z,90.40
2022-09-26T19:28:55.979Z,90.41
2022-09-26T19:31:23.899Z,90.36
2022-09-26T19:33:51.819Z,90.22
2022-09-26T19:36:20.680Z,90.38
2022-09-26T19:38:48.616Z,90.37
2022-09-26T19:41:16.512Z,90.72
2022-09-26T19:43:45.797Z,90.44
2022-09-26T19:46:18.354Z,90.80
2022-09-26T19:48:46.234Z,90.57
2022-09-26T19:51:17.322Z,90.81
2022-09-26T19:53:45.617Z,90.96
2022-09-26T19:56:13.446Z,90.83
2022-09-26T19:58:41.230Z,90.79
2022-09-26T20:01:16.677Z,90.88
2022-09-26T20:03:45.452Z,90.77
2022-09-26T20:06:16.122Z,90.74
2022-09-26T20:08:43.945Z,90.88
2022-09-26T20:11:11.856Z,90.78
2022-09-26T20:13:57.162Z,90.84
2022-09-26T20:16:26.621Z,90.84
2022-09-26T20:18:55.737Z,90.70
2022-09-26T20:21:27.122Z,90.67
2022-09-26T20:23:55.641Z,90.86
2022-09-26T20:26:23.582Z,90.82
2022-09-26T20:28:51.378Z,90.81
2022-09-26T20:31:23.121Z,90.63
2022-09-26T20:33:53.355Z,91.16
2022-09-26T20:36:28.537Z,91.03
2022-09-26T20:39:00.408Z,90.92
2022-09-26T20:41:32.472Z,90.91
2022-09-26T20:44:03.694Z,90.89
2022-09-26T20:46:34.780Z,90.89
2022-09-26T20:49:06.900Z,90.77
2022-09-26T20:51:35.614Z,91.05
2022-09-26T20:54:06.496Z,90.33
2022-09-26T20:56:34.327Z,90.54
2022-09-26T20:59:02.050Z,90.65
2022-09-26T21:01:30.098Z,90.33
2022-09-26T21:03:58.613Z,90.42
2022-09-26T21:06:34.273Z,90.59
2022-09-26T21:09:02.637Z,90.52
2022-09-26T21:11:30.459Z,90.11
2022-09-26T21:13:59.857Z,90.42
2022-09-26T21:16:27.713Z,90.91
2022-09-26T21:18:55.524Z,90.42
2022-09-26T21:21:25.115Z,90.61
2022-09-26T21:23:54.987Z,90.68
2022-09-26T21:26:24.923Z,90.99
2022-09-26T21:28:54.330Z,91.01
2022-09-26T21:31:26.165Z,90.77
2022-09-26T21:33:54.826Z,91.06
2022-09-26T21:36:22.598Z,90.99
2022-09-26T21:38:52.932Z,91.01
2022-09-26T21:41:22.223Z,91.20
2022-09-26T21:43:55.986Z,91.16
2022-09-26T21:46:24.459Z,91.31
2022-09-26T21:48:52.866Z,91.47
2022-09-26T21:51:22.661Z,91.59
2022-09-26T21:53:56.328Z,91.46
2022-09-26T21:56:29.930Z,91.40
2022-09-26T21:58:58.254Z,91.24
2022-09-26T22:01:26.152Z,91.50
2022-09-26T22:03:54.045Z,91.25
2022-09-26T22:09:29.637Z,91.37
2022-09-26T22:11:59.210Z,91.52
2022-09-26T22:14:28.519Z,91.78
2022-09-26T22:16:57.561Z,92.11
2022-09-26T22:19:27.322Z,91.80
2022-09-26T22:21:55.804Z,91.36
2022-09-26T22:24:23.515Z,91.52
2022-09-26T22:26:51.471Z,91.40
2022-09-26T22:29:21.144Z,90.77
2022-09-26T22:31:48.896Z,90.72
2022-09-26T22:34:16.671Z,91.21
2022-09-26T22:36:44.695Z,91.00
2022-09-26T22:39:12.448Z,90.62
2022-09-26T22:41:40.179Z,90.71
2022-09-26T22:44:08.068Z,90.96
2022-09-26T22:46:38.158Z,91.02
2022-09-26T22:49:06.178Z,90.49
2022-09-26T22:51:34.483Z,90.97
2022-09-26T22:54:02.635Z,90.70
2022-09-26T22:56:30.533Z,90.58
2022-09-26T22:58:58.278Z,90.33
2022-09-26T23:02:03.192Z,90.39
2022-09-26T23:04:52.845Z,90.07
2022-09-26T23:11:12.543Z,90.34
2022-09-26T23:13:40.964Z,90.43
2022-09-26T23:16:11.757Z,90.47
2022-09-26T23:18:40.775Z,90.02
2022-09-26T23:21:11.270Z,90.64
2022-09-26T23:23:39.836Z,90.21
2022-09-26T23:26:08.696Z,90.21
2022-09-26T23:28:36.460Z,90.06
2022-09-26T23:31:08.277Z,89.46
2022-09-26T23:33:36.440Z,89.22
2022-09-26T23:36:04.996Z,89.32
2022-09-26T23:38:34.911Z,89.64
2022-09-26T23:41:02.759Z,89.53
2022-09-26T23:43:30.631Z,89.48
2022-09-26T23:45:58.541Z,89.67
2022-09-26T23:48:26.295Z,89.49
2022-09-26T23:50:54.365Z,88.96
2022-09-26T23:53:22.254Z,89.11
2022-09-26T23:55:51.700Z,89.47
2022-09-26T23:58:19.566Z,89.37
